sensor_id;sensor_type;location;lat;lon;timestamp;P1;P2;P0
72023;PMS5003;59889;50.700;5.440;2023-12-07T00:01:24;4;3;
72023;PMS5003;59889;50.700;5.440;2023-12-07T00:03:49;4;4;
72023;PMS5003;59889;50.700;5.440;2023-12-07T00:06:14;4;4;
72023;PMS5003;59889;50.700;5.440;2023-12-07T00:08:39;4;4;
72023;PMS5003;59889;50.700;5.440;2023-12-07T00:11:05;3;2;
72023;PMS5003;59889;50.700;5.440;2023-12-07T00:13:30;3;3;
72023;PMS5003;59889;50.700;5.440;2023-12-07T00:15:55;5;4;
72023;PMS5003;59889;50.700;5.440;2023-12-07T00:18:20;3;3;
72023;PMS5003;59889;50.700;5.440;2023-12-07T00:20:45;4;4;
72023;PMS5003;59889;50.700;5.440;2023-12-07T00:23:10;3;3;
72023;PMS5003;59889;50.700;5.440;2023-12-07T00:25:35;2;2;
72023;PMS5003;59889;50.700;5.440;2023-12-07T00:28:00;3;3;
72023;PMS5003;59889;50.700;5.440;2023-12-07T00:30:25;2;2;
72023;PMS5003;59889;50.700;5.440;2023-12-07T00:32:50;3;3;
72023;PMS5003;59889;50.700;5.440;2023-12-07T00:35:16;5;4;
72023;PMS5003;59889;50.700;5.440;2023-12-07T00:37:41;3;3;
72023;PMS5003;59889;50.700;5.440;2023-12-07T00:40:06;3;3;
72023;PMS5003;59889;50.700;5.440;2023-12-07T00:42:31;4;3;
72023;PMS5003;59889;50.700;5.440;2023-12-07T00:44:57;2;2;
72023;PMS5003;59889;50.700;5.440;2023-12-07T00:47:21;5;4;
72023;PMS5003;59889;50.700;5.440;2023-12-07T00:49:46;2;2;
72023;PMS5003;59889;50.700;5.440;2023-12-07T00:52:11;2;2;
72023;PMS5003;59889;50.700;5.440;2023-12-07T00:54:36;4;4;
72023;PMS5003;59889;50.700;5.440;2023-12-07T00:57:02;3;3;
72023;PMS5003;59889;50.700;5.440;2023-12-07T00:59:27;2;2;
72023;PMS5003;59889;50.700;5.440;2023-12-07T01:01:52;3;3;
72023;PMS5003;59889;50.700;5.440;2023-12-07T01:04:17;3;3;
72023;PMS5003;59889;50.700;5.440;2023-12-07T01:06:42;3;3;
72023;PMS5003;59889;50.700;5.440;2023-12-07T01:09:07;4;2;
72023;PMS5003;59889;50.700;5.440;2023-12-07T01:11:40;4;4;
72023;PMS5003;59889;50.700;5.440;2023-12-07T01:13:57;3;3;
72023;PMS5003;59889;50.700;5.440;2023-12-07T01:16:22;2;2;
72023;PMS5003;59889;50.700;5.440;2023-12-07T01:18:47;2;1;
72023;PMS5003;59889;50.700;5.440;2023-12-07T01:21:12;3;3;
72023;PMS5003;59889;50.700;5.440;2023-12-07T01:23:38;3;3;
72023;PMS5003;59889;50.700;5.440;2023-12-07T01:26:03;3;3;
72023;PMS5003;59889;50.700;5.440;2023-12-07T01:28:28;4;3;
72023;PMS5003;59889;50.700;5.440;2023-12-07T01:30:53;4;3;
72023;PMS5003;59889;50.700;5.440;2023-12-07T01:33:18;4;3;
72023;PMS5003;59889;50.700;5.440;2023-12-07T01:35:43;3;3;
72023;PMS5003;59889;50.700;5.440;2023-12-07T01:38:08;3;3;
72023;PMS5003;59889;50.700;5.440;2023-12-07T01:40:33;2;2;
72023;PMS5003;59889;50.700;5.440;2023-12-07T01:42:58;2;2;
72023;PMS5003;59889;50.700;5.440;2023-12-07T01:45:23;1;1;
72023;PMS5003;59889;50.700;5.440;2023-12-07T01:47:49;3;2;
72023;PMS5003;59889;50.700;5.440;2023-12-07T01:50:14;3;3;
72023;PMS5003;59889;50.700;5.440;2023-12-07T01:52:39;5;4;
72023;PMS5003;59889;50.700;5.440;2023-12-07T01:55:04;4;4;
72023;PMS5003;59889;50.700;5.440;2023-12-07T01:57:29;3;3;
72023;PMS5003;59889;50.700;5.440;2023-12-07T01:59:54;5;4;
72023;PMS5003;59889;50.700;5.440;2023-12-07T02:02:19;2;2;
72023;PMS5003;59889;50.700;5.440;2023-12-07T02:04:44;5;4;
72023;PMS5003;59889;50.700;5.440;2023-12-07T02:07:09;4;3;
72023;PMS5003;59889;50.700;5.440;2023-12-07T02:09:34;3;2;
72023;PMS5003;59889;50.700;5.440;2023-12-07T02:11:59;4;4;
72023;PMS5003;59889;50.700;5.440;2023-12-07T02:14:25;4;4;
72023;PMS5003;59889;50.700;5.440;2023-12-07T02:16:51;3;3;
72023;PMS5003;59889;50.700;5.440;2023-12-07T02:19:18;3;3;
72023;PMS5003;59889;50.700;5.440;2023-12-07T02:21:40;4;3;
72023;PMS5003;59889;50.700;5.440;2023-12-07T02:24:05;3;3;
72023;PMS5003;59889;50.700;5.440;2023-12-07T02:26:31;3;3;
72023;PMS5003;59889;50.700;5.440;2023-12-07T02:28:55;3;3;
72023;PMS5003;59889;50.700;5.440;2023-12-07T02:31:20;2;2;
72023;PMS5003;59889;50.700;5.440;2023-12-07T02:33:45;3;3;
72023;PMS5003;59889;50.700;5.440;2023-12-07T02:36:10;3;3;
72023;PMS5003;59889;50.700;5.440;2023-12-07T02:38:36;5;4;
72023;PMS5003;59889;50.700;5.440;2023-12-07T02:41:02;4;4;
72023;PMS5003;59889;50.700;5.440;2023-12-07T02:43:26;5;4;
72023;PMS5003;59889;50.700;5.440;2023-12-07T02:45:51;1;1;
72023;PMS5003;59889;50.700;5.440;2023-12-07T02:48:16;3;3;
72023;PMS5003;59889;50.700;5.440;2023-12-07T02:50:41;5;3;
72023;PMS5003;59889;50.700;5.440;2023-12-07T02:53:06;5;4;
72023;PMS5003;59889;50.700;5.440;2023-12-07T02:55:31;3;3;
72023;PMS5003;59889;50.700;5.440;2023-12-07T02:57:56;3;3;
72023;PMS5003;59889;50.700;5.440;2023-12-07T03:00:21;2;2;
72023;PMS5003;59889;50.700;5.440;2023-12-07T03:02:47;3;3;
72023;PMS5003;59889;50.700;5.440;2023-12-07T03:05:12;4;3;
72023;PMS5003;59889;50.700;5.440;2023-12-07T03:07:37;3;3;
72023;PMS5003;59889;50.700;5.440;2023-12-07T03:10:02;4;3;
72023;PMS5003;59889;50.700;5.440;2023-12-07T03:12:27;4;4;
72023;PMS5003;59889;50.700;5.440;2023-12-07T03:14:52;4;4;
72023;PMS5003;59889;50.700;5.440;2023-12-07T03:17:17;4;4;
72023;PMS5003;59889;50.700;5.440;2023-12-07T03:19:42;2;2;
72023;PMS5003;59889;50.700;5.440;2023-12-07T03:22:07;2;2;
72023;PMS5003;59889;50.700;5.440;2023-12-07T03:24:32;4;4;
72023;PMS5003;59889;50.700;5.440;2023-12-07T03:26:58;3;3;
72023;PMS5003;59889;50.700;5.440;2023-12-07T03:29:23;4;3;
72023;PMS5003;59889;50.700;5.440;2023-12-07T03:31:48;2;2;
72023;PMS5003;59889;50.700;5.440;2023-12-07T03:34:13;3;3;
72023;PMS5003;59889;50.700;5.440;2023-12-07T03:36:38;3;3;
72023;PMS5003;59889;50.700;5.440;2023-12-07T03:39:03;5;4;
72023;PMS5003;59889;50.700;5.440;2023-12-07T03:41:28;2;2;
72023;PMS5003;59889;50.700;5.440;2023-12-07T03:43:53;4;3;
72023;PMS5003;59889;50.700;5.440;2023-12-07T03:46:18;4;4;
72023;PMS5003;59889;50.700;5.440;2023-12-07T03:48:43;4;4;
72023;PMS5003;59889;50.700;5.440;2023-12-07T03:51:12;4;4;
72023;PMS5003;59889;50.700;5.440;2023-12-07T03:53:34;3;3;
72023;PMS5003;59889;50.700;5.440;2023-12-07T03:55:59;3;3;
72023;PMS5003;59889;50.700;5.440;2023-12-07T03:58:24;4;3;
72023;PMS5003;59889;50.700;5.440;2023-12-07T04:00:49;4;4;
72023;PMS5003;59889;50.700;5.440;2023-12-07T04:03:14;4;4;
72023;PMS5003;59889;50.700;5.440;2023-12-07T04:05:39;2;2;
72023;PMS5003;59889;50.700;5.440;2023-12-07T04:08:04;4;4;
72023;PMS5003;59889;50.700;5.440;2023-12-07T04:10:29;3;3;
72023;PMS5003;59889;50.700;5.440;2023-12-07T04:12:54;3;2;
72023;PMS5003;59889;50.700;5.440;2023-12-07T04:15:20;3;3;
72023;PMS5003;59889;50.700;5.440;2023-12-07T04:17:45;3;3;
72023;PMS5003;59889;50.700;5.440;2023-12-07T04:20:10;2;2;
72023;PMS5003;59889;50.700;5.440;2023-12-07T04:22:35;3;3;
72023;PMS5003;59889;50.700;5.440;2023-12-07T04:25:00;3;2;
72023;PMS5003;59889;50.700;5.440;2023-12-07T04:27:25;3;3;
72023;PMS5003;59889;50.700;5.440;2023-12-07T04:29:51;5;4;
72023;PMS5003;59889;50.700;5.440;2023-12-07T04:32:16;2;2;
72023;PMS5003;59889;50.700;5.440;2023-12-07T04:34:41;3;3;
72023;PMS5003;59889;50.700;5.440;2023-12-07T04:37:06;2;2;
72023;PMS5003;59889;50.700;5.440;2023-12-07T04:39:31;4;4;
72023;PMS5003;59889;50.700;5.440;2023-12-07T04:41:56;4;4;
72023;PMS5003;59889;50.700;5.440;2023-12-07T04:44:21;4;4;
72023;PMS5003;59889;50.700;5.440;2023-12-07T04:46:46;3;3;
72023;PMS5003;59889;50.700;5.440;2023-12-07T04:49:11;1;1;
72023;PMS5003;59889;50.700;5.440;2023-12-07T04:51:36;2;2;
72023;PMS5003;59889;50.700;5.440;2023-12-07T04:54:02;4;4;
72023;PMS5003;59889;50.700;5.440;2023-12-07T04:56:27;3;3;
72023;PMS5003;59889;50.700;5.440;2023-12-07T04:58:52;3;2;
72023;PMS5003;59889;50.700;5.440;2023-12-07T05:01:17;3;3;
72023;PMS5003;59889;50.700;5.440;2023-12-07T05:03:42;3;2;
72023;PMS5003;59889;50.700;5.440;2023-12-07T05:06:07;3;3;
72023;PMS5003;59889;50.700;5.440;2023-12-07T05:08:32;5;5;
72023;PMS5003;59889;50.700;5.440;2023-12-07T05:10:57;6;6;
72023;PMS5003;59889;50.700;5.440;2023-12-07T05:13:22;9;8;
72023;PMS5003;59889;50.700;5.440;2023-12-07T05:15:47;7;6;
72023;PMS5003;59889;50.700;5.440;2023-12-07T05:18:13;8;7;
72023;PMS5003;59889;50.700;5.440;2023-12-07T05:20:38;7;7;
72023;PMS5003;59889;50.700;5.440;2023-12-07T05:23:03;7;7;
72023;PMS5003;59889;50.700;5.440;2023-12-07T05:25:28;6;6;
72023;PMS5003;59889;50.700;5.440;2023-12-07T05:27:53;9;9;
72023;PMS5003;59889;50.700;5.440;2023-12-07T05:30:18;7;7;
72023;PMS5003;59889;50.700;5.440;2023-12-07T05:32:43;8;8;
72023;PMS5003;59889;50.700;5.440;2023-12-07T05:35:08;7;7;
72023;PMS5003;59889;50.700;5.440;2023-12-07T05:37:33;6;5;
72023;PMS5003;59889;50.700;5.440;2023-12-07T05:39:58;8;6;
72023;PMS5003;59889;50.700;5.440;2023-12-07T05:42:24;7;6;
72023;PMS5003;59889;50.700;5.440;2023-12-07T05:44:49;7;6;
72023;PMS5003;59889;50.700;5.440;2023-12-07T05:47:14;5;5;
72023;PMS5003;59889;50.700;5.440;2023-12-07T05:49:40;6;6;
72023;PMS5003;59889;50.700;5.440;2023-12-07T05:52:05;7;5;
72023;PMS5003;59889;50.700;5.440;2023-12-07T05:54:30;5;5;
72023;PMS5003;59889;50.700;5.440;2023-12-07T05:56:56;5;5;
72023;PMS5003;59889;50.700;5.440;2023-12-07T05:59:20;8;7;
72023;PMS5003;59889;50.700;5.440;2023-12-07T06:01:46;6;6;
72023;PMS5003;59889;50.700;5.440;2023-12-07T06:04:11;10;7;
72023;PMS5003;59889;50.700;5.440;2023-12-07T06:06:36;9;7;
72023;PMS5003;59889;50.700;5.440;2023-12-07T06:09:01;5;5;
72023;PMS5003;59889;50.700;5.440;2023-12-07T06:11:26;6;5;
72023;PMS5003;59889;50.700;5.440;2023-12-07T06:13:51;7;6;
72023;PMS5003;59889;50.700;5.440;2023-12-07T06:16:16;7;6;
72023;PMS5003;59889;50.700;5.440;2023-12-07T06:18:41;6;6;
72023;PMS5003;59889;50.700;5.440;2023-12-07T06:21:06;5;4;
72023;PMS5003;59889;50.700;5.440;2023-12-07T06:23:32;5;4;
72023;PMS5003;59889;50.700;5.440;2023-12-07T06:25:57;7;6;
72023;PMS5003;59889;50.700;5.440;2023-12-07T06:28:22;8;7;
72023;PMS5003;59889;50.700;5.440;2023-12-07T06:30:47;6;4;
72023;PMS5003;59889;50.700;5.440;2023-12-07T06:33:12;8;6;
72023;PMS5003;59889;50.700;5.440;2023-12-07T06:35:37;5;4;
72023;PMS5003;59889;50.700;5.440;2023-12-07T06:38:02;3;3;
72023;PMS5003;59889;50.700;5.440;2023-12-07T06:40:27;3;3;
72023;PMS5003;59889;50.700;5.440;2023-12-07T06:42:52;5;4;
72023;PMS5003;59889;50.700;5.440;2023-12-07T06:45:18;7;6;
72023;PMS5003;59889;50.700;5.440;2023-12-07T06:47:43;4;4;
72023;PMS5003;59889;50.700;5.440;2023-12-07T06:50:08;4;4;
72023;PMS5003;59889;50.700;5.440;2023-12-07T06:52:33;6;5;
72023;PMS5003;59889;50.700;5.440;2023-12-07T06:54:58;4;4;
72023;PMS5003;59889;50.700;5.440;2023-12-07T06:57:23;7;5;
72023;PMS5003;59889;50.700;5.440;2023-12-07T06:59:48;4;4;
72023;PMS5003;59889;50.700;5.440;2023-12-07T07:02:13;6;5;
72023;PMS5003;59889;50.700;5.440;2023-12-07T07:04:39;4;3;
72023;PMS5003;59889;50.700;5.440;2023-12-07T07:07:04;4;4;
72023;PMS5003;59889;50.700;5.440;2023-12-07T07:09:29;4;4;
72023;PMS5003;59889;50.700;5.440;2023-12-07T07:11:54;5;4;
72023;PMS5003;59889;50.700;5.440;2023-12-07T07:14:19;6;5;
72023;PMS5003;59889;50.700;5.440;2023-12-07T07:16:44;6;5;
72023;PMS5003;59889;50.700;5.440;2023-12-07T07:19:10;7;6;
72023;PMS5003;59889;50.700;5.440;2023-12-07T07:21:35;4;4;
72023;PMS5003;59889;50.700;5.440;2023-12-07T07:24:00;6;5;
72023;PMS5003;59889;50.700;5.440;2023-12-07T07:26:25;5;5;
72023;PMS5003;59889;50.700;5.440;2023-12-07T07:28:50;6;6;
72023;PMS5003;59889;50.700;5.440;2023-12-07T07:31:15;6;5;
72023;PMS5003;59889;50.700;5.440;2023-12-07T07:33:41;3;3;
72023;PMS5003;59889;50.700;5.440;2023-12-07T07:36:06;3;3;
72023;PMS5003;59889;50.700;5.440;2023-12-07T07:38:31;4;4;
72023;PMS5003;59889;50.700;5.440;2023-12-07T07:40:56;5;4;
72023;PMS5003;59889;50.700;5.440;2023-12-07T07:43:21;3;3;
72023;PMS5003;59889;50.700;5.440;2023-12-07T07:45:46;4;4;
72023;PMS5003;59889;50.700;5.440;2023-12-07T07:48:12;4;4;
72023;PMS5003;59889;50.700;5.440;2023-12-07T07:50:37;4;4;
72023;PMS5003;59889;50.700;5.440;2023-12-07T07:53:02;5;5;
72023;PMS5003;59889;50.700;5.440;2023-12-07T07:55:27;3;3;
72023;PMS5003;59889;50.700;5.440;2023-12-07T07:57:52;2;2;
72023;PMS5003;59889;50.700;5.440;2023-12-07T08:00:18;5;5;
72023;PMS5003;59889;50.700;5.440;2023-12-07T08:02:42;3;3;
72023;PMS5003;59889;50.700;5.440;2023-12-07T08:05:07;4;4;
72023;PMS5003;59889;50.700;5.440;2023-12-07T08:07:33;4;3;
72023;PMS5003;59889;50.700;5.440;2023-12-07T08:09:57;5;4;
72023;PMS5003;59889;50.700;5.440;2023-12-07T08:12:23;5;5;
72023;PMS5003;59889;50.700;5.440;2023-12-07T08:14:48;5;5;
72023;PMS5003;59889;50.700;5.440;2023-12-07T08:17:14;5;5;
72023;PMS5003;59889;50.700;5.440;2023-12-07T08:19:38;5;4;
72023;PMS5003;59889;50.700;5.440;2023-12-07T08:22:04;4;4;
72023;PMS5003;59889;50.700;5.440;2023-12-07T08:24:29;4;4;
72023;PMS5003;59889;50.700;5.440;2023-12-07T08:26:54;4;4;
72023;PMS5003;59889;50.700;5.440;2023-12-07T08:29:19;5;4;
72023;PMS5003;59889;50.700;5.440;2023-12-07T08:31:44;6;5;
72023;PMS5003;59889;50.700;5.440;2023-12-07T08:34:09;4;4;
72023;PMS5003;59889;50.700;5.440;2023-12-07T08:36:34;4;4;
72023;PMS5003;59889;50.700;5.440;2023-12-07T08:38:59;5;4;
72023;PMS5003;59889;50.700;5.440;2023-12-07T08:41:25;5;4;
72023;PMS5003;59889;50.700;5.440;2023-12-07T08:43:50;4;3;
72023;PMS5003;59889;50.700;5.440;2023-12-07T08:46:15;5;5;
72023;PMS5003;59889;50.700;5.440;2023-12-07T08:48:40;5;5;
72023;PMS5003;59889;50.700;5.440;2023-12-07T08:51:05;5;4;
72023;PMS5003;59889;50.700;5.440;2023-12-07T08:53:30;5;5;
72023;PMS5003;59889;50.700;5.440;2023-12-07T08:55:55;4;4;
72023;PMS5003;59889;50.700;5.440;2023-12-07T08:58:20;4;3;
72023;PMS5003;59889;50.700;5.440;2023-12-07T09:00:45;5;5;
72023;PMS5003;59889;50.700;5.440;2023-12-07T09:03:10;5;4;
72023;PMS5003;59889;50.700;5.440;2023-12-07T09:05:36;3;3;
72023;PMS5003;59889;50.700;5.440;2023-12-07T09:08:01;6;5;
72023;PMS5003;59889;50.700;5.440;2023-12-07T09:10:26;3;3;
72023;PMS5003;59889;50.700;5.440;2023-12-07T09:12:51;6;6;
72023;PMS5003;59889;50.700;5.440;2023-12-07T09:15:17;3;3;
72023;PMS5003;59889;50.700;5.440;2023-12-07T09:17:42;5;5;
72023;PMS5003;59889;50.700;5.440;2023-12-07T09:20:07;5;4;
72023;PMS5003;59889;50.700;5.440;2023-12-07T09:22:32;5;5;
72023;PMS5003;59889;50.700;5.440;2023-12-07T09:24:57;5;4;
72023;PMS5003;59889;50.700;5.440;2023-12-07T09:27:22;5;5;
72023;PMS5003;59889;50.700;5.440;2023-12-07T09:29:47;5;4;
72023;PMS5003;59889;50.700;5.440;2023-12-07T09:32:12;5;5;
72023;PMS5003;59889;50.700;5.440;2023-12-07T09:34:39;4;4;
72023;PMS5003;59889;50.700;5.440;2023-12-07T09:37:05;4;4;
72023;PMS5003;59889;50.700;5.440;2023-12-07T09:39:28;7;6;
72023;PMS5003;59889;50.700;5.440;2023-12-07T09:41:53;7;6;
72023;PMS5003;59889;50.700;5.440;2023-12-07T09:44:18;6;6;
72023;PMS5003;59889;50.700;5.440;2023-12-07T09:46:43;7;6;
72023;PMS5003;59889;50.700;5.440;2023-12-07T09:49:08;7;6;
72023;PMS5003;59889;50.700;5.440;2023-12-07T09:51:34;6;6;
72023;PMS5003;59889;50.700;5.440;2023-12-07T09:53:59;8;8;
72023;PMS5003;59889;50.700;5.440;2023-12-07T09:56:24;7;7;
72023;PMS5003;59889;50.700;5.440;2023-12-07T09:58:49;5;5;
72023;PMS5003;59889;50.700;5.440;2023-12-07T10:01:14;7;6;
72023;PMS5003;59889;50.700;5.440;2023-12-07T10:03:39;6;6;
72023;PMS5003;59889;50.700;5.440;2023-12-07T10:06:05;7;6;
72023;PMS5003;59889;50.700;5.440;2023-12-07T10:08:30;5;4;
72023;PMS5003;59889;50.700;5.440;2023-12-07T10:11:01;5;5;
72023;PMS5003;59889;50.700;5.440;2023-12-07T10:13:20;8;7;
72023;PMS5003;59889;50.700;5.440;2023-12-07T10:15:45;9;8;
72023;PMS5003;59889;50.700;5.440;2023-12-07T10:18:10;12;7;
72023;PMS5003;59889;50.700;5.440;2023-12-07T10:20:36;6;6;
72023;PMS5003;59889;50.700;5.440;2023-12-07T10:23:01;7;7;
72023;PMS5003;59889;50.700;5.440;2023-12-07T10:25:26;6;6;
72023;PMS5003;59889;50.700;5.440;2023-12-07T10:27:52;7;6;
72023;PMS5003;59889;50.700;5.440;2023-12-07T10:30:16;5;5;
72023;PMS5003;59889;50.700;5.440;2023-12-07T10:32:41;9;7;
72023;PMS5003;59889;50.700;5.440;2023-12-07T10:35:07;8;7;
72023;PMS5003;59889;50.700;5.440;2023-12-07T10:37:32;8;8;
72023;PMS5003;59889;50.700;5.440;2023-12-07T10:39:57;10;8;
72023;PMS5003;59889;50.700;5.440;2023-12-07T10:42:22;6;6;
72023;PMS5003;59889;50.700;5.440;2023-12-07T10:44:47;8;8;
72023;PMS5003;59889;50.700;5.440;2023-12-07T10:47:12;9;7;
72023;PMS5003;59889;50.700;5.440;2023-12-07T10:49:38;8;7;
72023;PMS5003;59889;50.700;5.440;2023-12-07T10:52:03;10;7;
72023;PMS5003;59889;50.700;5.440;2023-12-07T10:54:30;6;5;
72023;PMS5003;59889;50.700;5.440;2023-12-07T10:56:52;6;5;
72023;PMS5003;59889;50.700;5.440;2023-12-07T10:59:18;8;6;
72023;PMS5003;59889;50.700;5.440;2023-12-07T11:01:43;6;6;
72023;PMS5003;59889;50.700;5.440;2023-12-07T11:04:08;7;6;
72023;PMS5003;59889;50.700;5.440;2023-12-07T11:06:33;6;6;
72023;PMS5003;59889;50.700;5.440;2023-12-07T11:08:58;10;8;
72023;PMS5003;59889;50.700;5.440;2023-12-07T11:11:24;8;7;
72023;PMS5003;59889;50.700;5.440;2023-12-07T11:13:51;7;4;
72023;PMS5003;59889;50.700;5.440;2023-12-07T11:16:13;5;5;
72023;PMS5003;59889;50.700;5.440;2023-12-07T11:18:38;6;4;
72023;PMS5003;59889;50.700;5.440;2023-12-07T11:21:04;6;6;
72023;PMS5003;59889;50.700;5.440;2023-12-07T11:23:29;5;5;
72023;PMS5003;59889;50.700;5.440;2023-12-07T11:25:54;9;6;
72023;PMS5003;59889;50.700;5.440;2023-12-07T11:28:19;6;5;
72023;PMS5003;59889;50.700;5.440;2023-12-07T11:30:44;6;6;
72023;PMS5003;59889;50.700;5.440;2023-12-07T11:33:09;4;3;
72023;PMS5003;59889;50.700;5.440;2023-12-07T11:35:37;6;5;
72023;PMS5003;59889;50.700;5.440;2023-12-07T11:38:00;6;6;
72023;PMS5003;59889;50.700;5.440;2023-12-07T11:40:25;5;5;
72023;PMS5003;59889;50.700;5.440;2023-12-07T11:42:50;5;4;
72023;PMS5003;59889;50.700;5.440;2023-12-07T11:45:15;5;4;
72023;PMS5003;59889;50.700;5.440;2023-12-07T11:47:40;7;7;
72023;PMS5003;59889;50.700;5.440;2023-12-07T11:50:06;6;6;
72023;PMS5003;59889;50.700;5.440;2023-12-07T11:52:30;8;8;
72023;PMS5003;59889;50.700;5.440;2023-12-07T11:54:56;6;5;
72023;PMS5003;59889;50.700;5.440;2023-12-07T11:57:21;4;4;
72023;PMS5003;59889;50.700;5.440;2023-12-07T11:59:46;5;5;
72023;PMS5003;59889;50.700;5.440;2023-12-07T12:02:12;7;6;
72023;PMS5003;59889;50.700;5.440;2023-12-07T12:04:36;9;6;
72023;PMS5003;59889;50.700;5.440;2023-12-07T12:07:01;4;4;
72023;PMS5003;59889;50.700;5.440;2023-12-07T12:09:26;6;5;
72023;PMS5003;59889;50.700;5.440;2023-12-07T12:11:52;5;5;
72023;PMS5003;59889;50.700;5.440;2023-12-07T12:14:18;8;7;
72023;PMS5003;59889;50.700;5.440;2023-12-07T12:16:43;6;5;
72023;PMS5003;59889;50.700;5.440;2023-12-07T12:19:08;5;4;
72023;PMS5003;59889;50.700;5.440;2023-12-07T12:21:33;5;5;
72023;PMS5003;59889;50.700;5.440;2023-12-07T12:23:59;6;4;
72023;PMS5003;59889;50.700;5.440;2023-12-07T12:26:23;6;6;
72023;PMS5003;59889;50.700;5.440;2023-12-07T12:28:48;5;5;
72023;PMS5003;59889;50.700;5.440;2023-12-07T12:31:13;8;8;
72023;PMS5003;59889;50.700;5.440;2023-12-07T12:33:39;4;4;
72023;PMS5003;59889;50.700;5.440;2023-12-07T12:36:04;4;4;
72023;PMS5003;59889;50.700;5.440;2023-12-07T12:38:29;9;7;
72023;PMS5003;59889;50.700;5.440;2023-12-07T12:40:54;8;6;
72023;PMS5003;59889;50.700;5.440;2023-12-07T12:43:19;5;4;
72023;PMS5003;59889;50.700;5.440;2023-12-07T12:45:44;5;4;
72023;PMS5003;59889;50.700;5.440;2023-12-07T12:48:09;4;4;
72023;PMS5003;59889;50.700;5.440;2023-12-07T12:50:35;5;4;
72023;PMS5003;59889;50.700;5.440;2023-12-07T12:52:59;5;5;
72023;PMS5003;59889;50.700;5.440;2023-12-07T12:55:25;4;4;
72023;PMS5003;59889;50.700;5.440;2023-12-07T12:57:50;5;5;
72023;PMS5003;59889;50.700;5.440;2023-12-07T13:00:15;5;5;
72023;PMS5003;59889;50.700;5.440;2023-12-07T13:02:40;6;5;
72023;PMS5003;59889;50.700;5.440;2023-12-07T13:05:05;5;5;
72023;PMS5003;59889;50.700;5.440;2023-12-07T13:07:30;4;4;
72023;PMS5003;59889;50.700;5.440;2023-12-07T13:09:55;7;5;
72023;PMS5003;59889;50.700;5.440;2023-12-07T13:12:20;4;4;
72023;PMS5003;59889;50.700;5.440;2023-12-07T13:14:45;3;3;
72023;PMS5003;59889;50.700;5.440;2023-12-07T13:17:10;5;5;
72023;PMS5003;59889;50.700;5.440;2023-12-07T13:19:36;5;5;
72023;PMS5003;59889;50.700;5.440;2023-12-07T13:22:01;4;4;
72023;PMS5003;59889;50.700;5.440;2023-12-07T13:24:26;5;5;
72023;PMS5003;59889;50.700;5.440;2023-12-07T13:26:51;5;5;
72023;PMS5003;59889;50.700;5.440;2023-12-07T13:29:16;5;4;
72023;PMS5003;59889;50.700;5.440;2023-12-07T13:31:41;6;4;
72023;PMS5003;59889;50.700;5.440;2023-12-07T13:34:06;4;4;
72023;PMS5003;59889;50.700;5.440;2023-12-07T13:36:31;3;3;
72023;PMS5003;59889;50.700;5.440;2023-12-07T13:38:56;6;5;
72023;PMS5003;59889;50.700;5.440;2023-12-07T13:41:22;6;5;
72023;PMS5003;59889;50.700;5.440;2023-12-07T13:43:47;5;5;
72023;PMS5003;59889;50.700;5.440;2023-12-07T13:46:12;4;4;
72023;PMS5003;59889;50.700;5.440;2023-12-07T13:48:37;4;4;
72023;PMS5003;59889;50.700;5.440;2023-12-07T13:51:02;5;5;
72023;PMS5003;59889;50.700;5.440;2023-12-07T13:53:27;4;4;
72023;PMS5003;59889;50.700;5.440;2023-12-07T13:55:52;5;5;
72023;PMS5003;59889;50.700;5.440;2023-12-07T13:58:17;5;4;
72023;PMS5003;59889;50.700;5.440;2023-12-07T14:00:42;3;3;
72023;PMS5003;59889;50.700;5.440;2023-12-07T14:03:08;5;4;
72023;PMS5003;59889;50.700;5.440;2023-12-07T14:05:33;5;5;
72023;PMS5003;59889;50.700;5.440;2023-12-07T14:07:58;7;6;
72023;PMS5003;59889;50.700;5.440;2023-12-07T14:10:23;6;5;
72023;PMS5003;59889;50.700;5.440;2023-12-07T14:12:48;4;4;
72023;PMS5003;59889;50.700;5.440;2023-12-07T14:15:13;4;3;
72023;PMS5003;59889;50.700;5.440;2023-12-07T14:17:38;4;4;
72023;PMS5003;59889;50.700;5.440;2023-12-07T14:20:04;5;5;
72023;PMS5003;59889;50.700;5.440;2023-12-07T14:22:29;6;6;
72023;PMS5003;59889;50.700;5.440;2023-12-07T14:24:54;6;5;
72023;PMS5003;59889;50.700;5.440;2023-12-07T14:27:19;5;5;
72023;PMS5003;59889;50.700;5.440;2023-12-07T14:29:44;5;4;
72023;PMS5003;59889;50.700;5.440;2023-12-07T14:32:09;4;3;
72023;PMS5003;59889;50.700;5.440;2023-12-07T14:34:34;4;4;
72023;PMS5003;59889;50.700;5.440;2023-12-07T14:36:59;5;5;
72023;PMS5003;59889;50.700;5.440;2023-12-07T14:39:24;4;4;
72023;PMS5003;59889;50.700;5.440;2023-12-07T14:41:49;3;3;
72023;PMS5003;59889;50.700;5.440;2023-12-07T14:44:14;5;5;
72023;PMS5003;59889;50.700;5.440;2023-12-07T14:46:40;5;5;
72023;PMS5003;59889;50.700;5.440;2023-12-07T14:49:05;5;5;
72023;PMS5003;59889;50.700;5.440;2023-12-07T14:51:30;6;6;
72023;PMS5003;59889;50.700;5.440;2023-12-07T14:53:55;6;3;
72023;PMS5003;59889;50.700;5.440;2023-12-07T14:56:20;7;6;
72023;PMS5003;59889;50.700;5.440;2023-12-07T14:58:45;3;3;
72023;PMS5003;59889;50.700;5.440;2023-12-07T15:01:10;4;4;
72023;PMS5003;59889;50.700;5.440;2023-12-07T15:03:35;3;3;
72023;PMS5003;59889;50.700;5.440;2023-12-07T15:06:00;5;5;
72023;PMS5003;59889;50.700;5.440;2023-12-07T15:08:25;5;5;
72023;PMS5003;59889;50.700;5.440;2023-12-07T15:10:50;4;4;
72023;PMS5003;59889;50.700;5.440;2023-12-07T15:13:16;3;3;
72023;PMS5003;59889;50.700;5.440;2023-12-07T15:15:41;4;4;
72023;PMS5003;59889;50.700;5.440;2023-12-07T15:18:06;4;4;
72023;PMS5003;59889;50.700;5.440;2023-12-07T15:20:31;4;4;
72023;PMS5003;59889;50.700;5.440;2023-12-07T15:22:56;4;4;
72023;PMS5003;59889;50.700;5.440;2023-12-07T15:25:21;5;4;
72023;PMS5003;59889;50.700;5.440;2023-12-07T15:27:46;4;3;
72023;PMS5003;59889;50.700;5.440;2023-12-07T15:30:11;6;5;
72023;PMS5003;59889;50.700;5.440;2023-12-07T15:32:36;6;4;
72023;PMS5003;59889;50.700;5.440;2023-12-07T15:35:01;7;5;
72023;PMS5003;59889;50.700;5.440;2023-12-07T15:37:27;5;5;
72023;PMS5003;59889;50.700;5.440;2023-12-07T15:39:52;4;4;
72023;PMS5003;59889;50.700;5.440;2023-12-07T15:42:17;6;5;
72023;PMS5003;59889;50.700;5.440;2023-12-07T15:44:42;5;4;
72023;PMS5003;59889;50.700;5.440;2023-12-07T15:47:07;3;3;
72023;PMS5003;59889;50.700;5.440;2023-12-07T15:49:32;6;4;
72023;PMS5003;59889;50.700;5.440;2023-12-07T15:51:57;6;6;
72023;PMS5003;59889;50.700;5.440;2023-12-07T15:54:22;6;6;
72023;PMS5003;59889;50.700;5.440;2023-12-07T15:56:47;7;7;
72023;PMS5003;59889;50.700;5.440;2023-12-07T15:59:12;6;6;
72023;PMS5003;59889;50.700;5.440;2023-12-07T16:01:38;6;5;
72023;PMS5003;59889;50.700;5.440;2023-12-07T16:04:03;5;5;
72023;PMS5003;59889;50.700;5.440;2023-12-07T16:06:29;6;6;
72023;PMS5003;59889;50.700;5.440;2023-12-07T16:08:53;8;7;
72023;PMS5003;59889;50.700;5.440;2023-12-07T16:11:18;9;9;
72023;PMS5003;59889;50.700;5.440;2023-12-07T16:13:43;7;7;
72023;PMS5003;59889;50.700;5.440;2023-12-07T16:16:08;7;7;
72023;PMS5003;59889;50.700;5.440;2023-12-07T16:18:33;7;7;
72023;PMS5003;59889;50.700;5.440;2023-12-07T16:20:59;17;14;
72023;PMS5003;59889;50.700;5.440;2023-12-07T16:23:24;8;7;
72023;PMS5003;59889;50.700;5.440;2023-12-07T16:25:49;8;8;
72023;PMS5003;59889;50.700;5.440;2023-12-07T16:28:14;8;8;
72023;PMS5003;59889;50.700;5.440;2023-12-07T16:30:40;8;8;
72023;PMS5003;59889;50.700;5.440;2023-12-07T16:33:05;12;7;
72023;PMS5003;59889;50.700;5.440;2023-12-07T16:35:30;7;7;